首页
METAR-TAF:

METAR-TAF

机场 :

门兴格拉德巴赫, 德国

纬度: 51-13-49N, 经度: 006-30-16E, 海拔: 38米

当前天气观测

该预报发布于21分钟前的06:20 UTC
风速5节,风向西转西南,在南转西南西之间变化
温度 4°C
湿度 93%
气压 1014 hPa
能见度10公里或以上

METAR: EDLN 190620Z AUTO 24005KT 200V280 9999 // SCT026/// BKN033/// BKN067/// 04/03 Q1014

时间: 07:41 (06:41 UTC)

预报

该预报发布于13小时和41分钟前的17:00 UTC
预报有效从18日的 18点(UTC)到 19日的 03点(UTC)
风速6节,风向西
能見度: 6000
多云层高于800英尺
雨, 毛毛雨
短暂存在
从 18日的 18点(UTC)到 18日的 22点(UTC)
能見度: 3000
散云层高于500英尺
多云层高于2000英尺
轻雾
成为
从 18日的 22点(UTC)到 18日的 24点(UTC)
多云层高于2500英尺

TAF: EDLN 181700Z 1818/1903 26006KT 6000 RADZ BKN008 TEMPO 1818/1822 3000 BR SCT005 BKN020 BECMG 1822/1824 NSW BKN025

超过4000个机场的气象观测和天气预报(METAR&TAF报告)。

可查询的气象台以黄色和红色小点在地图上表示。

将鼠标移到小点上方,可查看气象台名称。

然后点击查看天气观测和预报。

如需切换地图:点击带黑十字的绿色按钮放大地图;点击带横线的绿色按钮缩小地图;或者点击绿色箭头查看邻近地区的地图。


METAR-TAF: